sensor_id;sensor_type;location;lat;lon;timestamp;temperature;humidity
61016;DHT22;46902;52.920;6.536;2022-07-04T00:01:01;14.50;99.90
61016;DHT22;46902;52.920;6.536;2022-07-04T00:03:27;14.50;99.90
61016;DHT22;46902;52.920;6.536;2022-07-04T00:05:52;14.50;99.90
61016;DHT22;46902;52.920;6.536;2022-07-04T00:08:18;14.40;99.90
61016;DHT22;46902;52.920;6.536;2022-07-04T00:10:43;14.50;99.90
61016;DHT22;46902;52.920;6.536;2022-07-04T00:13:09;14.50;99.90
61016;DHT22;46902;52.920;6.536;2022-07-04T00:15:34;14.40;99.90
61016;DHT22;46902;52.920;6.536;2022-07-04T00:18:00;14.40;99.90
61016;DHT22;46902;52.920;6.536;2022-07-04T00:20:25;14.40;99.90
61016;DHT22;46902;52.920;6.536;2022-07-04T00:22:51;14.30;99.90
61016;DHT22;46902;52.920;6.536;2022-07-04T00:25:17;14.30;99.90
61016;DHT22;46902;52.920;6.536;2022-07-04T00:27:42;14.30;99.90
61016;DHT22;46902;52.920;6.536;2022-07-04T00:30:08;14.30;99.90
61016;DHT22;46902;52.920;6.536;2022-07-04T00:32:34;14.30;99.90
61016;DHT22;46902;52.920;6.536;2022-07-04T00:35:00;14.30;99.90
61016;DHT22;46902;52.920;6.536;2022-07-04T00:37:25;14.40;99.90
61016;DHT22;46902;52.920;6.536;2022-07-04T00:39:51;14.40;99.90
61016;DHT22;46902;52.920;6.536;2022-07-04T00:42:17;14.40;99.90
61016;DHT22;46902;52.920;6.536;2022-07-04T00:44:43;14.40;99.90
61016;DHT22;46902;52.920;6.536;2022-07-04T00:47:08;14.40;99.90
61016;DHT22;46902;52.920;6.536;2022-07-04T00:49:35;14.40;99.90
61016;DHT22;46902;52.920;6.536;2022-07-04T00:52:01;14.40;99.90
61016;DHT22;46902;52.920;6.536;2022-07-04T00:54:29;14.40;99.90
61016;DHT22;46902;52.920;6.536;2022-07-04T00:56:56;14.40;99.90
61016;DHT22;46902;52.920;6.536;2022-07-04T00:59:22;14.30;99.90
61016;DHT22;46902;52.920;6.536;2022-07-04T01:01:49;14.30;99.90
61016;DHT22;46902;52.920;6.536;2022-07-04T01:04:15;14.30;99.90
61016;DHT22;46902;52.920;6.536;2022-07-04T01:06:42;14.20;99.90
61016;DHT22;46902;52.920;6.536;2022-07-04T01:09:08;14.20;99.90
61016;DHT22;46902;52.920;6.536;2022-07-04T01:11:34;14.20;99.90
61016;DHT22;46902;52.920;6.536;2022-07-04T01:13:59;14.20;99.90
61016;DHT22;46902;52.920;6.536;2022-07-04T01:16:26;14.10;99.90
61016;DHT22;46902;52.920;6.536;2022-07-04T01:18:53;14.10;99.90
61016;DHT22;46902;52.920;6.536;2022-07-04T01:21:19;14.10;99.90
61016;DHT22;46902;52.920;6.536;2022-07-04T01:23:45;14.10;99.90
61016;DHT22;46902;52.920;6.536;2022-07-04T01:26:11;14.10;99.90
61016;DHT22;46902;52.920;6.536;2022-07-04T01:28:38;14.10;99.90
61016;DHT22;46902;52.920;6.536;2022-07-04T01:31:04;14.00;99.90
61016;DHT22;46902;52.920;6.536;2022-07-04T01:33:29;14.00;99.90
61016;DHT22;46902;52.920;6.536;2022-07-04T01:35:55;13.90;99.90
61016;DHT22;46902;52.920;6.536;2022-07-04T01:38:21;13.90;99.90
61016;DHT22;46902;52.920;6.536;2022-07-04T01:40:46;13.90;99.90
61016;DHT22;46902;52.920;6.536;2022-07-04T01:43:12;13.90;99.90
61016;DHT22;46902;52.920;6.536;2022-07-04T01:45:38;13.90;99.90
61016;DHT22;46902;52.920;6.536;2022-07-04T01:48:08;13.80;99.90
61016;DHT22;46902;52.920;6.536;2022-07-04T01:50:34;13.80;99.90
61016;DHT22;46902;52.920;6.536;2022-07-04T01:53:00;13.70;99.90
61016;DHT22;46902;52.920;6.536;2022-07-04T01:55:26;13.70;99.90
61016;DHT22;46902;52.920;6.536;2022-07-04T01:57:52;13.70;99.90
61016;DHT22;46902;52.920;6.536;2022-07-04T02:00:18;13.70;99.90
61016;DHT22;46902;52.920;6.536;2022-07-04T02:03:03;13.70;99.90
61016;DHT22;46902;52.920;6.536;2022-07-04T02:05:28;13.70;99.90
61016;DHT22;46902;52.920;6.536;2022-07-04T02:07:54;13.60;99.90
61016;DHT22;46902;52.920;6.536;2022-07-04T02:10:20;13.60;99.90
61016;DHT22;46902;52.920;6.536;2022-07-04T02:12:46;13.50;99.90
61016;DHT22;46902;52.920;6.536;2022-07-04T02:15:53;13.50;99.90
61016;DHT22;46902;52.920;6.536;2022-07-04T02:18:18;13.50;99.90
61016;DHT22;46902;52.920;6.536;2022-07-04T02:20:44;13.40;99.90
61016;DHT22;46902;52.920;6.536;2022-07-04T02:23:09;13.50;99.90
61016;DHT22;46902;52.920;6.536;2022-07-04T02:25:35;13.50;99.90
61016;DHT22;46902;52.920;6.536;2022-07-04T02:28:01;13.50;99.90
61016;DHT22;46902;52.920;6.536;2022-07-04T02:30:26;13.50;99.90
61016;DHT22;46902;52.920;6.536;2022-07-04T02:32:52;13.50;99.90
61016;DHT22;46902;52.920;6.536;2022-07-04T02:35:18;13.50;99.90
61016;DHT22;46902;52.920;6.536;2022-07-04T02:37:43;13.50;99.90
61016;DHT22;46902;52.920;6.536;2022-07-04T02:40:09;13.50;99.90
61016;DHT22;46902;52.920;6.536;2022-07-04T02:42:35;13.50;99.90
61016;DHT22;46902;52.920;6.536;2022-07-04T02:45:02;13.60;99.90
61016;DHT22;46902;52.920;6.536;2022-07-04T02:47:28;13.60;99.90
61016;DHT22;46902;52.920;6.536;2022-07-04T02:49:54;13.60;99.90
61016;DHT22;46902;52.920;6.536;2022-07-04T02:52:19;13.60;99.90
61016;DHT22;46902;52.920;6.536;2022-07-04T02:54:45;13.60;99.90
61016;DHT22;46902;52.920;6.536;2022-07-04T02:57:12;13.50;99.90
61016;DHT22;46902;52.920;6.536;2022-07-04T02:59:38;13.50;99.90
61016;DHT22;46902;52.920;6.536;2022-07-04T03:02:04;13.50;99.90
61016;DHT22;46902;52.920;6.536;2022-07-04T03:04:29;13.50;99.90
61016;DHT22;46902;52.920;6.536;2022-07-04T03:06:55;13.50;99.90
61016;DHT22;46902;52.920;6.536;2022-07-04T03:09:20;13.50;99.90
61016;DHT22;46902;52.920;6.536;2022-07-04T03:11:46;13.40;99.90
61016;DHT22;46902;52.920;6.536;2022-07-04T03:14:12;13.50;99.90
61016;DHT22;46902;52.920;6.536;2022-07-04T03:16:37;13.40;99.90
61016;DHT22;46902;52.920;6.536;2022-07-04T03:19:03;13.40;99.90
61016;DHT22;46902;52.920;6.536;2022-07-04T03:21:29;13.40;99.90
61016;DHT22;46902;52.920;6.536;2022-07-04T03:23:54;13.40;99.90
61016;DHT22;46902;52.920;6.536;2022-07-04T03:26:28;13.40;99.90
61016;DHT22;46902;52.920;6.536;2022-07-04T03:28:57;13.40;99.90
61016;DHT22;46902;52.920;6.536;2022-07-04T03:31:24;13.30;99.90
61016;DHT22;46902;52.920;6.536;2022-07-04T03:33:50;13.30;99.90
61016;DHT22;46902;52.920;6.536;2022-07-04T03:36:17;13.30;99.90
61016;DHT22;46902;52.920;6.536;2022-07-04T03:38:46;13.30;99.90
61016;DHT22;46902;52.920;6.536;2022-07-04T03:41:11;13.40;99.90
61016;DHT22;46902;52.920;6.536;2022-07-04T03:43:37;13.40;99.90
61016;DHT22;46902;52.920;6.536;2022-07-04T03:46:03;13.40;99.90
61016;DHT22;46902;52.920;6.536;2022-07-04T03:48:29;13.40;99.90
61016;DHT22;46902;52.920;6.536;2022-07-04T03:50:54;13.30;99.90
61016;DHT22;46902;52.920;6.536;2022-07-04T03:53:20;13.40;99.90
61016;DHT22;46902;52.920;6.536;2022-07-04T03:55:46;13.40;99.90
61016;DHT22;46902;52.920;6.536;2022-07-04T03:58:12;13.40;99.90
61016;DHT22;46902;52.920;6.536;2022-07-04T04:00:37;13.40;99.90
61016;DHT22;46902;52.920;6.536;2022-07-04T04:03:03;13.40;99.90
61016;DHT22;46902;52.920;6.536;2022-07-04T04:05:48;13.40;99.90
61016;DHT22;46902;52.920;6.536;2022-07-04T04:08:14;13.40;99.90
61016;DHT22;46902;52.920;6.536;2022-07-04T04:10:39;13.40;99.90
61016;DHT22;46902;52.920;6.536;2022-07-04T04:13:05;13.40;99.90
61016;DHT22;46902;52.920;6.536;2022-07-04T04:15:31;13.50;99.90
61016;DHT22;46902;52.920;6.536;2022-07-04T04:17:56;13.50;99.90
61016;DHT22;46902;52.920;6.536;2022-07-04T04:20:22;13.50;99.90
61016;DHT22;46902;52.920;6.536;2022-07-04T04:22:47;13.60;99.90
61016;DHT22;46902;52.920;6.536;2022-07-04T04:25:15;13.60;99.90
61016;DHT22;46902;52.920;6.536;2022-07-04T04:27:41;13.60;99.90
61016;DHT22;46902;52.920;6.536;2022-07-04T04:30:07;13.70;99.90
61016;DHT22;46902;52.920;6.536;2022-07-04T04:32:33;13.80;99.90
61016;DHT22;46902;52.920;6.536;2022-07-04T04:34:58;13.80;99.90
61016;DHT22;46902;52.920;6.536;2022-07-04T04:37:24;13.90;99.90
61016;DHT22;46902;52.920;6.536;2022-07-04T04:39:50;13.90;99.90
61016;DHT22;46902;52.920;6.536;2022-07-04T04:42:15;14.00;99.90
61016;DHT22;46902;52.920;6.536;2022-07-04T04:44:41;14.00;99.90
61016;DHT22;46902;52.920;6.536;2022-07-04T04:47:06;14.10;99.90
61016;DHT22;46902;52.920;6.536;2022-07-04T04:49:32;14.10;99.90
61016;DHT22;46902;52.920;6.536;2022-07-04T04:51:57;14.20;99.90
61016;DHT22;46902;52.920;6.536;2022-07-04T04:54:23;14.20;99.90
61016;DHT22;46902;52.920;6.536;2022-07-04T04:56:49;14.30;99.90
61016;DHT22;46902;52.920;6.536;2022-07-04T04:59:14;14.30;99.90
61016;DHT22;46902;52.920;6.536;2022-07-04T05:01:40;14.40;99.90
61016;DHT22;46902;52.920;6.536;2022-07-04T05:04:05;14.40;99.90
61016;DHT22;46902;52.920;6.536;2022-07-04T05:06:31;14.50;99.90
61016;DHT22;46902;52.920;6.536;2022-07-04T05:08:56;14.50;99.90
61016;DHT22;46902;52.920;6.536;2022-07-04T05:11:22;14.50;99.90
61016;DHT22;46902;52.920;6.536;2022-07-04T05:13:48;14.60;99.90
61016;DHT22;46902;52.920;6.536;2022-07-04T05:16:13;14.60;99.90
61016;DHT22;46902;52.920;6.536;2022-07-04T05:18:39;14.70;99.90
61016;DHT22;46902;52.920;6.536;2022-07-04T05:21:04;14.70;99.90
61016;DHT22;46902;52.920;6.536;2022-07-04T05:23:30;14.80;99.90
61016;DHT22;46902;52.920;6.536;2022-07-04T05:25:56;14.80;99.90
61016;DHT22;46902;52.920;6.536;2022-07-04T05:28:21;14.90;99.90
61016;DHT22;46902;52.920;6.536;2022-07-04T05:30:47;15.00;99.90
61016;DHT22;46902;52.920;6.536;2022-07-04T05:33:12;15.00;99.90
61016;DHT22;46902;52.920;6.536;2022-07-04T05:35:38;15.10;99.90
61016;DHT22;46902;52.920;6.536;2022-07-04T05:38:04;15.10;99.90
61016;DHT22;46902;52.920;6.536;2022-07-04T05:40:30;15.10;99.90
61016;DHT22;46902;52.920;6.536;2022-07-04T05:42:55;15.20;99.90
61016;DHT22;46902;52.920;6.536;2022-07-04T05:45:22;15.20;99.90
61016;DHT22;46902;52.920;6.536;2022-07-04T05:47:47;15.30;99.90
61016;DHT22;46902;52.920;6.536;2022-07-04T05:50:13;15.40;99.90
61016;DHT22;46902;52.920;6.536;2022-07-04T05:52:38;15.40;99.90
61016;DHT22;46902;52.920;6.536;2022-07-04T05:55:04;15.50;99.90
61016;DHT22;46902;52.920;6.536;2022-07-04T05:57:31;15.50;99.90
61016;DHT22;46902;52.920;6.536;2022-07-04T05:59:57;15.50;99.90
61016;DHT22;46902;52.920;6.536;2022-07-04T06:02:23;15.60;99.90
61016;DHT22;46902;52.920;6.536;2022-07-04T06:04:48;15.70;99.90
61016;DHT22;46902;52.920;6.536;2022-07-04T06:07:14;15.80;99.90
61016;DHT22;46902;52.920;6.536;2022-07-04T06:09:39;15.90;99.90
61016;DHT22;46902;52.920;6.536;2022-07-04T06:12:05;16.00;99.90
61016;DHT22;46902;52.920;6.536;2022-07-04T06:14:31;16.00;99.90
61016;DHT22;46902;52.920;6.536;2022-07-04T06:16:56;16.10;99.90
61016;DHT22;46902;52.920;6.536;2022-07-04T06:19:22;16.20;99.90
61016;DHT22;46902;52.920;6.536;2022-07-04T06:21:48;16.20;99.90
61016;DHT22;46902;52.920;6.536;2022-07-04T06:24:13;16.30;99.90
61016;DHT22;46902;52.920;6.536;2022-07-04T06:26:39;16.40;99.90
61016;DHT22;46902;52.920;6.536;2022-07-04T06:29:05;16.50;99.90
61016;DHT22;46902;52.920;6.536;2022-07-04T06:31:31;16.50;99.90
61016;DHT22;46902;52.920;6.536;2022-07-04T06:33:57;16.60;99.90
61016;DHT22;46902;52.920;6.536;2022-07-04T06:36:41;16.70;99.90
61016;DHT22;46902;52.920;6.536;2022-07-04T06:39:07;16.70;99.90
61016;DHT22;46902;52.920;6.536;2022-07-04T06:41:32;16.80;99.90
61016;DHT22;46902;52.920;6.536;2022-07-04T06:43:58;16.90;99.90
61016;DHT22;46902;52.920;6.536;2022-07-04T06:46:24;16.90;99.90
61016;DHT22;46902;52.920;6.536;2022-07-04T06:48:50;17.00;99.90
61016;DHT22;46902;52.920;6.536;2022-07-04T06:51:16;17.10;99.90
61016;DHT22;46902;52.920;6.536;2022-07-04T06:53:42;17.20;99.90
61016;DHT22;46902;52.920;6.536;2022-07-04T06:56:07;17.20;99.90
61016;DHT22;46902;52.920;6.536;2022-07-04T06:58:33;17.30;99.90
61016;DHT22;46902;52.920;6.536;2022-07-04T07:00:58;17.40;99.90
61016;DHT22;46902;52.920;6.536;2022-07-04T07:03:24;17.50;99.90
61016;DHT22;46902;52.920;6.536;2022-07-04T07:05:50;17.60;99.90
61016;DHT22;46902;52.920;6.536;2022-07-04T07:08:16;17.70;99.90
61016;DHT22;46902;52.920;6.536;2022-07-04T07:10:48;17.80;99.90
61016;DHT22;46902;52.920;6.536;2022-07-04T07:13:13;18.00;99.90
61016;DHT22;46902;52.920;6.536;2022-07-04T07:15:39;18.10;99.90
61016;DHT22;46902;52.920;6.536;2022-07-04T07:18:05;18.20;99.90
61016;DHT22;46902;52.920;6.536;2022-07-04T07:20:31;18.30;99.90
61016;DHT22;46902;52.920;6.536;2022-07-04T07:22:57;18.40;99.90
61016;DHT22;46902;52.920;6.536;2022-07-04T07:25:22;18.50;99.90
61016;DHT22;46902;52.920;6.536;2022-07-04T07:27:48;18.50;99.90
61016;DHT22;46902;52.920;6.536;2022-07-04T07:30:13;18.70;99.90
61016;DHT22;46902;52.920;6.536;2022-07-04T07:32:39;18.80;99.90
61016;DHT22;46902;52.920;6.536;2022-07-04T07:35:05;18.80;99.90
61016;DHT22;46902;52.920;6.536;2022-07-04T07:37:31;18.80;99.90
61016;DHT22;46902;52.920;6.536;2022-07-04T07:39:57;18.80;99.90
61016;DHT22;46902;52.920;6.536;2022-07-04T07:42:25;18.70;99.90
61016;DHT22;46902;52.920;6.536;2022-07-04T07:44:51;18.90;99.90
61016;DHT22;46902;52.920;6.536;2022-07-04T07:47:17;19.00;99.90
61016;DHT22;46902;52.920;6.536;2022-07-04T07:49:43;19.00;99.90
61016;DHT22;46902;52.920;6.536;2022-07-04T07:52:10;19.00;99.90
61016;DHT22;46902;52.920;6.536;2022-07-04T07:54:36;19.00;99.90
61016;DHT22;46902;52.920;6.536;2022-07-04T07:57:02;19.00;99.90
61016;DHT22;46902;52.920;6.536;2022-07-04T07:59:27;18.90;99.90
61016;DHT22;46902;52.920;6.536;2022-07-04T08:01:53;19.00;99.90
61016;DHT22;46902;52.920;6.536;2022-07-04T08:04:18;19.20;99.90
61016;DHT22;46902;52.920;6.536;2022-07-04T08:07:07;19.30;99.90
61016;DHT22;46902;52.920;6.536;2022-07-04T08:09:34;19.50;99.90
61016;DHT22;46902;52.920;6.536;2022-07-04T08:12:01;19.60;99.90
61016;DHT22;46902;52.920;6.536;2022-07-04T08:14:27;19.70;99.90
61016;DHT22;46902;52.920;6.536;2022-07-04T08:16:54;19.90;99.90
61016;DHT22;46902;52.920;6.536;2022-07-04T08:19:20;20.10;99.90
61016;DHT22;46902;52.920;6.536;2022-07-04T08:21:45;20.30;99.90
61016;DHT22;46902;52.920;6.536;2022-07-04T08:24:14;20.60;99.90
61016;DHT22;46902;52.920;6.536;2022-07-04T08:26:41;20.60;99.90
61016;DHT22;46902;52.920;6.536;2022-07-04T08:29:19;20.50;99.90
61016;DHT22;46902;52.920;6.536;2022-07-04T08:31:45;20.50;99.90
61016;DHT22;46902;52.920;6.536;2022-07-04T08:34:11;20.70;99.90
61016;DHT22;46902;52.920;6.536;2022-07-04T08:36:37;20.80;99.90
61016;DHT22;46902;52.920;6.536;2022-07-04T08:39:03;21.00;99.90
61016;DHT22;46902;52.920;6.536;2022-07-04T08:41:35;21.00;99.90
61016;DHT22;46902;52.920;6.536;2022-07-04T08:44:02;20.90;99.90
61016;DHT22;46902;52.920;6.536;2022-07-04T08:46:29;20.80;99.90
61016;DHT22;46902;52.920;6.536;2022-07-04T08:48:58;20.80;99.90
61016;DHT22;46902;52.920;6.536;2022-07-04T08:51:37;20.80;99.90
61016;DHT22;46902;52.920;6.536;2022-07-04T08:54:05;21.00;99.90
61016;DHT22;46902;52.920;6.536;2022-07-04T08:56:52;21.10;99.90
61016;DHT22;46902;52.920;6.536;2022-07-04T08:59:37;21.10;99.90
61016;DHT22;46902;52.920;6.536;2022-07-04T09:02:03;21.00;99.90
61016;DHT22;46902;52.920;6.536;2022-07-04T09:04:29;20.80;99.90
61016;DHT22;46902;52.920;6.536;2022-07-04T09:06:56;20.60;99.90
61016;DHT22;46902;52.920;6.536;2022-07-04T09:09:23;20.50;99.90
61016;DHT22;46902;52.920;6.536;2022-07-04T09:11:50;20.30;99.90
61016;DHT22;46902;52.920;6.536;2022-07-04T09:14:15;20.10;99.90
61016;DHT22;46902;52.920;6.536;2022-07-04T09:16:41;19.90;99.90
61016;DHT22;46902;52.920;6.536;2022-07-04T09:19:19;19.70;99.90
61016;DHT22;46902;52.920;6.536;2022-07-04T09:21:45;19.60;99.90
61016;DHT22;46902;52.920;6.536;2022-07-04T09:24:11;19.50;99.90
61016;DHT22;46902;52.920;6.536;2022-07-04T09:26:40;19.70;99.90
61016;DHT22;46902;52.920;6.536;2022-07-04T09:29:09;20.00;99.90
61016;DHT22;46902;52.920;6.536;2022-07-04T09:31:35;20.30;99.90
61016;DHT22;46902;52.920;6.536;2022-07-04T09:34:04;20.40;99.90
61016;DHT22;46902;52.920;6.536;2022-07-04T09:36:34;20.80;99.90
61016;DHT22;46902;52.920;6.536;2022-07-04T09:39:10;20.90;99.90
61016;DHT22;46902;52.920;6.536;2022-07-04T09:44:26;21.40;99.90
61016;DHT22;46902;52.920;6.536;2022-07-04T09:46:52;21.60;99.90
61016;DHT22;46902;52.920;6.536;2022-07-04T09:49:18;21.80;99.90
61016;DHT22;46902;52.920;6.536;2022-07-04T09:51:47;21.70;99.90
61016;DHT22;46902;52.920;6.536;2022-07-04T09:54:29;21.80;99.90
61016;DHT22;46902;52.920;6.536;2022-07-04T09:57:02;22.10;99.90
61016;DHT22;46902;52.920;6.536;2022-07-04T09:59:29;22.40;99.90
61016;DHT22;46902;52.920;6.536;2022-07-04T10:02:11;22.50;99.40
61016;DHT22;46902;52.920;6.536;2022-07-04T10:04:51;22.40;97.90
61016;DHT22;46902;52.920;6.536;2022-07-04T10:07:34;22.40;96.10
61016;DHT22;46902;52.920;6.536;2022-07-04T10:10:23;22.60;94.80
61016;DHT22;46902;52.920;6.536;2022-07-04T10:12:50;22.80;95.30
61016;DHT22;46902;52.920;6.536;2022-07-04T10:15:17;23.00;96.30
61016;DHT22;46902;52.920;6.536;2022-07-04T10:17:42;23.00;92.70
61016;DHT22;46902;52.920;6.536;2022-07-04T10:20:11;23.10;92.80
61016;DHT22;46902;52.920;6.536;2022-07-04T10:22:37;23.20;93.30
61016;DHT22;46902;52.920;6.536;2022-07-04T10:25:05;23.20;94.80
61016;DHT22;46902;52.920;6.536;2022-07-04T10:27:31;23.20;94.80
61016;DHT22;46902;52.920;6.536;2022-07-04T10:29:58;23.10;91.20
61016;DHT22;46902;52.920;6.536;2022-07-04T10:32:25;22.90;93.80
61016;DHT22;46902;52.920;6.536;2022-07-04T10:34:51;22.60;95.40
61016;DHT22;46902;52.920;6.536;2022-07-04T10:37:17;22.30;96.30
61016;DHT22;46902;52.920;6.536;2022-07-04T10:39:43;22.10;96.50
61016;DHT22;46902;52.920;6.536;2022-07-04T10:42:09;22.00;99.90
61016;DHT22;46902;52.920;6.536;2022-07-04T10:44:34;21.80;99.90
61016;DHT22;46902;52.920;6.536;2022-07-04T10:47:03;21.70;99.90
61016;DHT22;46902;52.920;6.536;2022-07-04T10:49:30;21.80;99.90
61016;DHT22;46902;52.920;6.536;2022-07-04T10:52:13;21.90;99.90
61016;DHT22;46902;52.920;6.536;2022-07-04T10:54:41;22.20;99.90
61016;DHT22;46902;52.920;6.536;2022-07-04T10:57:23;22.50;99.90
61016;DHT22;46902;52.920;6.536;2022-07-04T11:05:06;23.30;98.60
61016;DHT22;46902;52.920;6.536;2022-07-04T11:17:59;23.80;91.90
61016;DHT22;46902;52.920;6.536;2022-07-04T11:20:27;23.90;90.80
61016;DHT22;46902;52.920;6.536;2022-07-04T11:23:06;23.80;89.30
61016;DHT22;46902;52.920;6.536;2022-07-04T11:25:32;23.80;90.70
61016;DHT22;46902;52.920;6.536;2022-07-04T11:27:58;23.50;90.00
61016;DHT22;46902;52.920;6.536;2022-07-04T11:30:48;23.60;91.30
61016;DHT22;46902;52.920;6.536;2022-07-04T11:33:19;23.80;91.40
61016;DHT22;46902;52.920;6.536;2022-07-04T11:41:15;24.80;77.20
61016;DHT22;46902;52.920;6.536;2022-07-04T11:44:04;24.90;80.40
61016;DHT22;46902;52.920;6.536;2022-07-04T11:46:48;25.00;72.40
61016;DHT22;46902;52.920;6.536;2022-07-04T11:49:14;24.50;74.40
61016;DHT22;46902;52.920;6.536;2022-07-04T11:51:47;24.20;74.10
61016;DHT22;46902;52.920;6.536;2022-07-04T11:54:13;24.30;81.00
61016;DHT22;46902;52.920;6.536;2022-07-04T11:56:38;24.60;78.40
61016;DHT22;46902;52.920;6.536;2022-07-04T11:59:15;24.80;75.40
61016;DHT22;46902;52.920;6.536;2022-07-04T12:01:43;24.90;69.50
61016;DHT22;46902;52.920;6.536;2022-07-04T12:04:13;25.10;72.30
61016;DHT22;46902;52.920;6.536;2022-07-04T12:06:40;25.00;72.00
61016;DHT22;46902;52.920;6.536;2022-07-04T12:09:06;24.80;67.70
61016;DHT22;46902;52.920;6.536;2022-07-04T12:11:54;24.50;68.20
61016;DHT22;46902;52.920;6.536;2022-07-04T12:14:20;24.20;67.30
61016;DHT22;46902;52.920;6.536;2022-07-04T12:16:46;23.90;69.20
61016;DHT22;46902;52.920;6.536;2022-07-04T12:19:13;23.50;69.30
61016;DHT22;46902;52.920;6.536;2022-07-04T12:21:38;23.30;72.50
61016;DHT22;46902;52.920;6.536;2022-07-04T12:24:04;23.40;71.90
61016;DHT22;46902;52.920;6.536;2022-07-04T12:26:34;23.60;71.50
61016;DHT22;46902;52.920;6.536;2022-07-04T12:29:09;23.90;68.20
61016;DHT22;46902;52.920;6.536;2022-07-04T12:31:42;23.70;68.70
61016;DHT22;46902;52.920;6.536;2022-07-04T12:34:17;23.50;69.40
61016;DHT22;46902;52.920;6.536;2022-07-04T12:36:53;23.50;71.10
61016;DHT22;46902;52.920;6.536;2022-07-04T12:39:30;23.50;69.70
61016;DHT22;46902;52.920;6.536;2022-07-04T12:42:09;23.70;73.10
61016;DHT22;46902;52.920;6.536;2022-07-04T12:44:39;24.00;67.50
61016;DHT22;46902;52.920;6.536;2022-07-04T12:47:06;23.80;67.70
61016;DHT22;46902;52.920;6.536;2022-07-04T12:49:33;23.70;68.90
61016;DHT22;46902;52.920;6.536;2022-07-04T12:52:07;23.70;69.30
61016;DHT22;46902;52.920;6.536;2022-07-04T12:54:33;24.00;67.20
61016;DHT22;46902;52.920;6.536;2022-07-04T12:57:10;24.20;67.80
61016;DHT22;46902;52.920;6.536;2022-07-04T12:59:37;24.50;66.00
61016;DHT22;46902;52.920;6.536;2022-07-04T13:02:03;24.60;67.20
61016;DHT22;46902;52.920;6.536;2022-07-04T13:04:29;24.60;65.90
61016;DHT22;46902;52.920;6.536;2022-07-04T13:06:57;24.70;64.80
61016;DHT22;46902;52.920;6.536;2022-07-04T13:09:23;24.90;62.20
61016;DHT22;46902;52.920;6.536;2022-07-04T13:11:49;24.50;59.60
61016;DHT22;46902;52.920;6.536;2022-07-04T13:14:33;24.20;61.10
61016;DHT22;46902;52.920;6.536;2022-07-04T13:16:59;24.10;60.90
61016;DHT22;46902;52.920;6.536;2022-07-04T13:19:24;23.90;59.80
61016;DHT22;46902;52.920;6.536;2022-07-04T13:21:50;23.80;61.80
61016;DHT22;46902;52.920;6.536;2022-07-04T13:24:16;24.10;65.30
61016;DHT22;46902;52.920;6.536;2022-07-04T13:26:42;24.10;62.40
61016;DHT22;46902;52.920;6.536;2022-07-04T13:29:08;24.10;61.00
61016;DHT22;46902;52.920;6.536;2022-07-04T13:31:34;23.90;60.20
61016;DHT22;46902;52.920;6.536;2022-07-04T13:33:59;23.90;59.10
61016;DHT22;46902;52.920;6.536;2022-07-04T13:36:25;23.80;59.10
61016;DHT22;46902;52.920;6.536;2022-07-04T13:38:51;23.80;58.30
61016;DHT22;46902;52.920;6.536;2022-07-04T13:41:16;24.00;58.70
61016;DHT22;46902;52.920;6.536;2022-07-04T13:43:42;24.10;59.90
61016;DHT22;46902;52.920;6.536;2022-07-04T13:46:08;24.20;59.20
61016;DHT22;46902;52.920;6.536;2022-07-04T13:48:33;24.00;58.10
61016;DHT22;46902;52.920;6.536;2022-07-04T13:50:59;23.70;56.70
61016;DHT22;46902;52.920;6.536;2022-07-04T13:53:24;23.60;58.30
61016;DHT22;46902;52.920;6.536;2022-07-04T13:55:50;23.60;59.80
61016;DHT22;46902;52.920;6.536;2022-07-04T13:58:15;23.70;60.90
61016;DHT22;46902;52.920;6.536;2022-07-04T14:00:41;23.90;61.40
61016;DHT22;46902;52.920;6.536;2022-07-04T14:03:11;23.90;59.40
61016;DHT22;46902;52.920;6.536;2022-07-04T14:05:37;23.60;58.50
61016;DHT22;46902;52.920;6.536;2022-07-04T14:08:02;23.60;59.70
61016;DHT22;46902;52.920;6.536;2022-07-04T14:10:28;23.70;59.60
61016;DHT22;46902;52.920;6.536;2022-07-04T14:12:54;23.90;60.70
61016;DHT22;46902;52.920;6.536;2022-07-04T14:15:19;23.90;60.00
61016;DHT22;46902;52.920;6.536;2022-07-04T14:17:45;23.70;60.20
61016;DHT22;46902;52.920;6.536;2022-07-04T14:20:11;23.70;60.30
61016;DHT22;46902;52.920;6.536;2022-07-04T14:22:37;23.80;60.70
61016;DHT22;46902;52.920;6.536;2022-07-04T14:25:04;23.70;60.40
61016;DHT22;46902;52.920;6.536;2022-07-04T14:27:30;23.60;61.00
61016;DHT22;46902;52.920;6.536;2022-07-04T14:29:58;23.70;62.80
61016;DHT22;46902;52.920;6.536;2022-07-04T14:32:23;23.60;63.10
61016;DHT22;46902;52.920;6.536;2022-07-04T14:34:49;23.50;62.50
61016;DHT22;46902;52.920;6.536;2022-07-04T14:37:14;23.30;62.20
61016;DHT22;46902;52.920;6.536;2022-07-04T14:39:40;23.20;62.00
61016;DHT22;46902;52.920;6.536;2022-07-04T14:42:06;23.30;60.90
61016;DHT22;46902;52.920;6.536;2022-07-04T14:44:32;23.30;60.00
61016;DHT22;46902;52.920;6.536;2022-07-04T14:47:02;23.30;60.30
61016;DHT22;46902;52.920;6.536;2022-07-04T14:49:27;23.50;59.80
61016;DHT22;46902;52.920;6.536;2022-07-04T14:51:53;23.30;58.70
61016;DHT22;46902;52.920;6.536;2022-07-04T14:54:19;23.30;59.50
61016;DHT22;46902;52.920;6.536;2022-07-04T14:56:45;23.40;60.20
61016;DHT22;46902;52.920;6.536;2022-07-04T14:59:10;23.50;59.90
61016;DHT22;46902;52.920;6.536;2022-07-04T15:01:36;23.50;60.10
61016;DHT22;46902;52.920;6.536;2022-07-04T15:04:01;23.60;59.10
61016;DHT22;46902;52.920;6.536;2022-07-04T15:06:27;23.60;57.60
61016;DHT22;46902;52.920;6.536;2022-07-04T15:08:53;23.50;57.70
61016;DHT22;46902;52.920;6.536;2022-07-04T15:11:18;23.50;60.10
61016;DHT22;46902;52.920;6.536;2022-07-04T15:13:44;23.30;59.10
61016;DHT22;46902;52.920;6.536;2022-07-04T15:16:10;23.50;60.40
61016;DHT22;46902;52.920;6.536;2022-07-04T15:18:35;23.60;60.30
61016;DHT22;46902;52.920;6.536;2022-07-04T15:21:01;23.60;59.10
61016;DHT22;46902;52.920;6.536;2022-07-04T15:23:45;23.70;59.40
61016;DHT22;46902;52.920;6.536;2022-07-04T15:26:29;23.80;60.10
61016;DHT22;46902;52.920;6.536;2022-07-04T15:28:55;23.80;58.30
61016;DHT22;46902;52.920;6.536;2022-07-04T15:31:21;23.90;59.10
61016;DHT22;46902;52.920;6.536;2022-07-04T15:33:46;23.80;58.10
61016;DHT22;46902;52.920;6.536;2022-07-04T15:36:12;23.60;58.20
61016;DHT22;46902;52.920;6.536;2022-07-04T15:38:38;23.50;58.70
61016;DHT22;46902;52.920;6.536;2022-07-04T15:41:03;23.40;59.40
61016;DHT22;46902;52.920;6.536;2022-07-04T15:43:30;23.30;58.40
61016;DHT22;46902;52.920;6.536;2022-07-04T15:45:56;23.20;58.80
61016;DHT22;46902;52.920;6.536;2022-07-04T15:48:29;23.30;59.80
61016;DHT22;46902;52.920;6.536;2022-07-04T15:50:55;23.30;59.80
61016;DHT22;46902;52.920;6.536;2022-07-04T15:53:20;23.20;59.40
61016;DHT22;46902;52.920;6.536;2022-07-04T15:55:46;23.00;58.90